sensor_id;sensor_type;location;lat;lon;timestamp;pressure;altitude;pressure_sealevel;temperature;humidity
65329;BME280;51941;52.210;5.158;2024-01-16T00:02:15;100886.22;;;-0.27;81.40
65329;BME280;51941;52.210;5.158;2024-01-16T00:04:42;100890.31;;;-0.21;81.47
65329;BME280;51941;52.210;5.158;2024-01-16T00:07:10;100903.28;;;-0.19;81.68
65329;BME280;51941;52.210;5.158;2024-01-16T00:09:37;100912.56;;;-0.08;81.32
65329;BME280;51941;52.210;5.158;2024-01-16T00:12:04;100911.28;;;0.04;81.01
65329;BME280;51941;52.210;5.158;2024-01-16T00:14:35;100898.34;;;0.02;80.86
65329;BME280;51941;52.210;5.158;2024-01-16T00:17:02;100873.63;;;0.07;81.04
65329;BME280;51941;52.210;5.158;2024-01-16T00:19:28;100873.81;;;0.10;80.86
65329;BME280;51941;52.210;5.158;2024-01-16T00:21:55;100876.75;;;0.09;80.87
65329;BME280;51941;52.210;5.158;2024-01-16T00:24:23;100871.75;;;0.07;80.46
65329;BME280;51941;52.210;5.158;2024-01-16T00:26:50;100874.81;;;0.01;80.49
65329;BME280;51941;52.210;5.158;2024-01-16T00:29:17;100873.94;;;-0.09;80.64
65329;BME280;51941;52.210;5.158;2024-01-16T00:31:43;100880.22;;;-0.18;80.70
65329;BME280;51941;52.210;5.158;2024-01-16T00:34:10;100883.28;;;-0.25;80.86
65329;BME280;51941;52.210;5.158;2024-01-16T00:36:37;100876.97;;;-0.29;81.08
65329;BME280;51941;52.210;5.158;2024-01-16T00:39:03;100875.72;;;-0.32;81.32
65329;BME280;51941;52.210;5.158;2024-01-16T00:41:31;100874.25;;;-0.38;81.39
65329;BME280;51941;52.210;5.158;2024-01-16T00:43:58;100878.78;;;-0.38;81.70
65329;BME280;51941;52.210;5.158;2024-01-16T00:46:25;100876.41;;;-0.40;81.43
65329;BME280;51941;52.210;5.158;2024-01-16T00:48:52;100876.91;;;-0.38;81.94
65329;BME280;51941;52.210;5.158;2024-01-16T00:51:18;100882.19;;;-0.38;81.65
65329;BME280;51941;52.210;5.158;2024-01-16T00:53:45;100885.13;;;-0.39;81.60
65329;BME280;51941;52.210;5.158;2024-01-16T00:56:12;100891.50;;;-0.41;81.93
65329;BME280;51941;52.210;5.158;2024-01-16T00:58:40;100891.81;;;-0.42;81.87
65329;BME280;51941;52.210;5.158;2024-01-16T01:01:07;100888.56;;;-0.39;81.77
65329;BME280;51941;52.210;5.158;2024-01-16T01:03:33;100900.22;;;-0.40;81.61
65329;BME280;51941;52.210;5.158;2024-01-16T01:06:00;100898.34;;;-0.39;81.96
65329;BME280;51941;52.210;5.158;2024-01-16T01:08:27;100900.72;;;-0.38;81.86
65329;BME280;51941;52.210;5.158;2024-01-16T01:10:54;100896.81;;;-0.41;81.44
65329;BME280;51941;52.210;5.158;2024-01-16T01:13:21;100897.09;;;-0.42;81.64
65329;BME280;51941;52.210;5.158;2024-01-16T01:15:49;100895.50;;;-0.43;81.63
65329;BME280;51941;52.210;5.158;2024-01-16T01:18:16;100895.34;;;-0.47;81.55
65329;BME280;51941;52.210;5.158;2024-01-16T01:20:42;100904.03;;;-0.46;81.58
65329;BME280;51941;52.210;5.158;2024-01-16T01:23:09;100902.78;;;-0.49;81.92
65329;BME280;51941;52.210;5.158;2024-01-16T01:25:36;100901.69;;;-0.48;81.76
65329;BME280;51941;52.210;5.158;2024-01-16T01:28:03;100905.03;;;-0.42;81.61
65329;BME280;51941;52.210;5.158;2024-01-16T01:30:30;100898.06;;;-0.38;81.58
65329;BME280;51941;52.210;5.158;2024-01-16T01:32:58;100915.91;;;-0.30;81.84
65329;BME280;51941;52.210;5.158;2024-01-16T01:35:24;100922.56;;;-0.32;81.49
65329;BME280;51941;52.210;5.158;2024-01-16T01:37:51;100937.28;;;-0.26;81.63
65329;BME280;51941;52.210;5.158;2024-01-16T01:40:18;100953.56;;;-0.33;80.95
65329;BME280;51941;52.210;5.158;2024-01-16T01:42:45;100941.38;;;-0.34;81.38
65329;BME280;51941;52.210;5.158;2024-01-16T01:45:11;100945.13;;;-0.21;81.92
65329;BME280;51941;52.210;5.158;2024-01-16T01:47:39;100936.72;;;-0.23;83.28
65329;BME280;51941;52.210;5.158;2024-01-16T01:50:09;100952.88;;;-0.25;83.69
65329;BME280;51941;52.210;5.158;2024-01-16T01:52:37;100939.16;;;-0.13;83.47
65329;BME280;51941;52.210;5.158;2024-01-16T01:55:07;100936.09;;;-0.06;83.79
65329;BME280;51941;52.210;5.158;2024-01-16T01:57:34;100931.28;;;-0.04;84.14
65329;BME280;51941;52.210;5.158;2024-01-16T02:00:02;100923.25;;;0.01;84.04
65329;BME280;51941;52.210;5.158;2024-01-16T02:02:38;100918.03;;;0.10;83.67
65329;BME280;51941;52.210;5.158;2024-01-16T02:05:06;100911.69;;;0.11;83.50
65329;BME280;51941;52.210;5.158;2024-01-16T02:07:34;100914.63;;;0.09;82.74
65329;BME280;51941;52.210;5.158;2024-01-16T02:10:01;100914.72;;;0.04;82.69
65329;BME280;51941;52.210;5.158;2024-01-16T02:12:29;100912.38;;;0.03;82.59
65329;BME280;51941;52.210;5.158;2024-01-16T02:14:56;100922.97;;;0.03;83.42
65329;BME280;51941;52.210;5.158;2024-01-16T02:17:22;100921.50;;;-0.04;83.74
65329;BME280;51941;52.210;5.158;2024-01-16T02:19:49;100922.84;;;0.08;83.54
65329;BME280;51941;52.210;5.158;2024-01-16T02:22:19;100920.41;;;0.11;83.10
65329;BME280;51941;52.210;5.158;2024-01-16T02:24:48;100920.50;;;0.06;83.63
65329;BME280;51941;52.210;5.158;2024-01-16T02:27:15;100918.16;;;0.05;83.85
65329;BME280;51941;52.210;5.158;2024-01-16T02:29:42;100906.09;;;0.12;83.27
65329;BME280;51941;52.210;5.158;2024-01-16T02:32:11;100906.19;;;0.07;83.08
65329;BME280;51941;52.210;5.158;2024-01-16T02:34:38;100907.16;;;0.11;83.46
65329;BME280;51941;52.210;5.158;2024-01-16T02:37:05;100904.78;;;0.10;83.20
65329;BME280;51941;52.210;5.158;2024-01-16T02:39:31;100905.59;;;0.10;83.01
65329;BME280;51941;52.210;5.158;2024-01-16T02:41:59;100899.81;;;0.08;83.24
65329;BME280;51941;52.210;5.158;2024-01-16T02:44:26;100898.72;;;0.09;82.86
65329;BME280;51941;52.210;5.158;2024-01-16T02:46:53;100907.16;;;0.11;83.02
65329;BME280;51941;52.210;5.158;2024-01-16T02:49:20;100906.56;;;0.14;82.89
65329;BME280;51941;52.210;5.158;2024-01-16T02:51:46;100917.84;;;0.20;82.85
65329;BME280;51941;52.210;5.158;2024-01-16T02:54:13;100915.69;;;0.22;83.06
65329;BME280;51941;52.210;5.158;2024-01-16T02:56:40;100917.34;;;0.18;82.76
65329;BME280;51941;52.210;5.158;2024-01-16T02:59:08;100909.91;;;0.20;82.98
65329;BME280;51941;52.210;5.158;2024-01-16T03:01:35;100907.06;;;0.16;82.97
65329;BME280;51941;52.210;5.158;2024-01-16T03:04:01;100908.81;;;0.21;83.03
65329;BME280;51941;52.210;5.158;2024-01-16T03:06:28;100909.38;;;0.18;83.53
65329;BME280;51941;52.210;5.158;2024-01-16T03:08:55;100908.53;;;0.23;83.44
65329;BME280;51941;52.210;5.158;2024-01-16T03:11:21;100916.06;;;0.15;83.62
65329;BME280;51941;52.210;5.158;2024-01-16T03:13:48;100904.00;;;0.23;83.95
65329;BME280;51941;52.210;5.158;2024-01-16T03:16:19;100910.88;;;0.24;83.52
65329;BME280;51941;52.210;5.158;2024-01-16T03:18:46;100914.19;;;0.30;83.63
65329;BME280;51941;52.210;5.158;2024-01-16T03:21:13;100906.22;;;0.30;83.58
65329;BME280;51941;52.210;5.158;2024-01-16T03:23:40;100905.53;;;0.38;83.25
65329;BME280;51941;52.210;5.158;2024-01-16T03:26:11;100908.06;;;0.43;83.42
65329;BME280;51941;52.210;5.158;2024-01-16T03:28:38;100908.53;;;0.45;82.89
65329;BME280;51941;52.210;5.158;2024-01-16T03:31:05;100911.38;;;0.49;82.94
65329;BME280;51941;52.210;5.158;2024-01-16T03:33:33;100912.53;;;0.56;82.64
65329;BME280;51941;52.210;5.158;2024-01-16T03:36:01;100910.84;;;0.61;82.74
65329;BME280;51941;52.210;5.158;2024-01-16T03:38:28;100899.97;;;0.62;82.05
65329;BME280;51941;52.210;5.158;2024-01-16T03:40:54;100913.50;;;0.61;82.10
65329;BME280;51941;52.210;5.158;2024-01-16T03:43:22;100904.50;;;0.62;82.03
65329;BME280;51941;52.210;5.158;2024-01-16T03:45:48;100914.13;;;0.57;81.85
65329;BME280;51941;52.210;5.158;2024-01-16T03:48:15;100905.69;;;0.55;81.61
65329;BME280;51941;52.210;5.158;2024-01-16T03:50:43;100896.63;;;0.56;81.37
65329;BME280;51941;52.210;5.158;2024-01-16T03:53:10;100901.47;;;0.54;81.37
65329;BME280;51941;52.210;5.158;2024-01-16T03:55:37;100896.25;;;0.49;80.61
65329;BME280;51941;52.210;5.158;2024-01-16T03:58:04;100885.19;;;0.47;80.46
65329;BME280;51941;52.210;5.158;2024-01-16T04:00:31;100899.72;;;0.50;81.06
65329;BME280;51941;52.210;5.158;2024-01-16T04:02:58;100888.31;;;0.49;80.42
65329;BME280;51941;52.210;5.158;2024-01-16T04:05:24;100895.31;;;0.45;80.52
65329;BME280;51941;52.210;5.158;2024-01-16T04:07:52;100899.25;;;0.48;80.67
65329;BME280;51941;52.210;5.158;2024-01-16T04:10:19;100897.94;;;0.45;80.73
65329;BME280;51941;52.210;5.158;2024-01-16T04:12:46;100902.00;;;0.43;80.69
65329;BME280;51941;52.210;5.158;2024-01-16T04:15:13;100905.84;;;0.36;81.09
65329;BME280;51941;52.210;5.158;2024-01-16T04:17:39;100912.03;;;0.32;81.45
65329;BME280;51941;52.210;5.158;2024-01-16T04:20:07;100906.22;;;0.30;81.58
65329;BME280;51941;52.210;5.158;2024-01-16T04:22:35;100911.22;;;0.31;81.85
65329;BME280;51941;52.210;5.158;2024-01-16T04:25:04;100898.47;;;0.33;81.81
65329;BME280;51941;52.210;5.158;2024-01-16T04:27:30;100885.34;;;0.28;81.93
65329;BME280;51941;52.210;5.158;2024-01-16T04:29:57;100886.31;;;0.32;81.87
65329;BME280;51941;52.210;5.158;2024-01-16T04:32:24;100891.31;;;0.34;82.25
65329;BME280;51941;52.210;5.158;2024-01-16T04:34:51;100883.19;;;0.30;82.10
65329;BME280;51941;52.210;5.158;2024-01-16T04:37:17;100889.75;;;0.33;82.00
65329;BME280;51941;52.210;5.158;2024-01-16T04:39:44;100883.38;;;0.34;82.06
65329;BME280;51941;52.210;5.158;2024-01-16T04:42:12;100879.94;;;0.33;81.72
65329;BME280;51941;52.210;5.158;2024-01-16T04:44:39;100874.94;;;0.32;81.49
65329;BME280;51941;52.210;5.158;2024-01-16T04:47:06;100877.28;;;0.33;81.44
65329;BME280;51941;52.210;5.158;2024-01-16T04:49:32;100873.19;;;0.27;81.32
65329;BME280;51941;52.210;5.158;2024-01-16T04:51:59;100881.75;;;0.24;81.38
65329;BME280;51941;52.210;5.158;2024-01-16T04:54:26;100877.72;;;0.13;81.40
65329;BME280;51941;52.210;5.158;2024-01-16T04:56:52;100883.50;;;0.15;81.48
65329;BME280;51941;52.210;5.158;2024-01-16T04:59:20;100868.03;;;0.08;81.90
65329;BME280;51941;52.210;5.158;2024-01-16T05:01:47;100877.28;;;-0.03;81.92
65329;BME280;51941;52.210;5.158;2024-01-16T05:04:14;100877.97;;;0.03;82.02
65329;BME280;51941;52.210;5.158;2024-01-16T05:06:40;100860.69;;;0.05;82.38
65329;BME280;51941;52.210;5.158;2024-01-16T05:09:07;100864.72;;;0.03;81.83
65329;BME280;51941;52.210;5.158;2024-01-16T05:11:34;100852.00;;;-0.09;81.61
65329;BME280;51941;52.210;5.158;2024-01-16T05:14:01;100856.91;;;-0.16;81.94
65329;BME280;51941;52.210;5.158;2024-01-16T05:16:29;100850.44;;;-0.24;81.97
65329;BME280;51941;52.210;5.158;2024-01-16T05:18:55;100850.03;;;-0.31;82.43
65329;BME280;51941;52.210;5.158;2024-01-16T05:21:22;100838.09;;;-0.29;82.38
65329;BME280;51941;52.210;5.158;2024-01-16T05:23:49;100843.97;;;-0.32;82.92
65329;BME280;51941;52.210;5.158;2024-01-16T05:26:16;100842.91;;;-0.31;82.81
65329;BME280;51941;52.210;5.158;2024-01-16T05:28:43;100837.47;;;-0.26;82.85
65329;BME280;51941;52.210;5.158;2024-01-16T05:31:10;100830.03;;;-0.24;82.64
65329;BME280;51941;52.210;5.158;2024-01-16T05:33:38;100833.66;;;-0.19;82.20
65329;BME280;51941;52.210;5.158;2024-01-16T05:36:05;100828.56;;;-0.16;82.43
65329;BME280;51941;52.210;5.158;2024-01-16T05:38:31;100832.50;;;-0.13;82.18
65329;BME280;51941;52.210;5.158;2024-01-16T05:40:59;100822.38;;;-0.11;82.25
65329;BME280;51941;52.210;5.158;2024-01-16T05:43:25;100831.88;;;-0.10;82.07
65329;BME280;51941;52.210;5.158;2024-01-16T05:45:54;100832.06;;;-0.07;82.43
65329;BME280;51941;52.210;5.158;2024-01-16T05:48:20;100830.44;;;-0.16;83.02
65329;BME280;51941;52.210;5.158;2024-01-16T05:50:48;100835.50;;;-0.06;83.00
65329;BME280;51941;52.210;5.158;2024-01-16T05:53:15;100827.16;;;0.01;82.70
65329;BME280;51941;52.210;5.158;2024-01-16T05:55:42;100826.25;;;0.05;82.63
65329;BME280;51941;52.210;5.158;2024-01-16T05:58:08;100826.16;;;0.10;82.50
65329;BME280;51941;52.210;5.158;2024-01-16T06:00:35;100824.56;;;0.09;82.45
65329;BME280;51941;52.210;5.158;2024-01-16T06:03:03;100841.88;;;-0.07;83.47
65329;BME280;51941;52.210;5.158;2024-01-16T06:05:31;100836.28;;;0.08;83.15
65329;BME280;51941;52.210;5.158;2024-01-16T06:07:59;100842.16;;;0.05;83.18
65329;BME280;51941;52.210;5.158;2024-01-16T06:10:26;100841.66;;;0.03;83.44
65329;BME280;51941;52.210;5.158;2024-01-16T06:12:52;100840.72;;;-0.15;84.34
65329;BME280;51941;52.210;5.158;2024-01-16T06:15:19;100837.56;;;-0.03;84.16
65329;BME280;51941;52.210;5.158;2024-01-16T06:17:46;100839.53;;;-0.09;84.45
65329;BME280;51941;52.210;5.158;2024-01-16T06:20:12;100840.44;;;-0.13;84.56
65329;BME280;51941;52.210;5.158;2024-01-16T06:22:39;100836.19;;;-0.14;84.97
65329;BME280;51941;52.210;5.158;2024-01-16T06:25:07;100840.50;;;-0.05;84.46
65329;BME280;51941;52.210;5.158;2024-01-16T06:27:34;100836.94;;;0.00;84.26
65329;BME280;51941;52.210;5.158;2024-01-16T06:30:01;100832.66;;;-0.10;84.53
65329;BME280;51941;52.210;5.158;2024-01-16T06:32:29;100830.97;;;-0.06;84.45
65329;BME280;51941;52.210;5.158;2024-01-16T06:34:55;100823.03;;;-0.06;84.33
65329;BME280;51941;52.210;5.158;2024-01-16T06:37:22;100840.00;;;-0.07;83.95
65329;BME280;51941;52.210;5.158;2024-01-16T06:39:49;100831.97;;;-0.02;84.36
65329;BME280;51941;52.210;5.158;2024-01-16T06:42:17;100831.66;;;0.00;84.17
65329;BME280;51941;52.210;5.158;2024-01-16T06:44:44;100834.13;;;-0.04;84.04
65329;BME280;51941;52.210;5.158;2024-01-16T06:47:11;100832.81;;;0.08;83.84
65329;BME280;51941;52.210;5.158;2024-01-16T06:49:38;100837.34;;;0.07;84.04
65329;BME280;51941;52.210;5.158;2024-01-16T06:52:05;100831.75;;;0.09;84.04
65329;BME280;51941;52.210;5.158;2024-01-16T06:54:31;100829.28;;;0.12;84.03
65329;BME280;51941;52.210;5.158;2024-01-16T06:56:58;100841.03;;;0.20;83.89
65329;BME280;51941;52.210;5.158;2024-01-16T06:59:27;100846.97;;;0.26;83.65
65329;BME280;51941;52.210;5.158;2024-01-16T07:01:54;100843.25;;;0.27;83.77
65329;BME280;51941;52.210;5.158;2024-01-16T07:04:21;100837.97;;;0.27;83.56
65329;BME280;51941;52.210;5.158;2024-01-16T07:06:47;100841.28;;;0.32;83.37
65329;BME280;51941;52.210;5.158;2024-01-16T07:09:14;100840.19;;;0.33;83.48
65329;BME280;51941;52.210;5.158;2024-01-16T07:11:41;100840.88;;;0.39;83.22
65329;BME280;51941;52.210;5.158;2024-01-16T07:14:09;100840.56;;;0.41;83.37
65329;BME280;51941;52.210;5.158;2024-01-16T07:16:37;100844.19;;;0.45;82.83
65329;BME280;51941;52.210;5.158;2024-01-16T07:19:04;100847.41;;;0.42;82.35
65329;BME280;51941;52.210;5.158;2024-01-16T07:21:31;100847.41;;;0.42;82.82
65329;BME280;51941;52.210;5.158;2024-01-16T07:23:59;100851.06;;;0.46;82.65
65329;BME280;51941;52.210;5.158;2024-01-16T07:26:26;100856.03;;;0.47;82.58
65329;BME280;51941;52.210;5.158;2024-01-16T07:28:53;100847.19;;;0.52;82.38
65329;BME280;51941;52.210;5.158;2024-01-16T07:31:19;100857.19;;;0.55;82.36
65329;BME280;51941;52.210;5.158;2024-01-16T07:33:47;100858.47;;;0.57;82.33
65329;BME280;51941;52.210;5.158;2024-01-16T07:36:14;100858.16;;;0.59;81.62
65329;BME280;51941;52.210;5.158;2024-01-16T07:38:41;100851.28;;;0.58;81.64
65329;BME280;51941;52.210;5.158;2024-01-16T07:41:08;100856.13;;;0.56;81.26
65329;BME280;51941;52.210;5.158;2024-01-16T07:43:34;100859.66;;;0.51;81.74
65329;BME280;51941;52.210;5.158;2024-01-16T07:46:01;100860.44;;;0.52;81.26
65329;BME280;51941;52.210;5.158;2024-01-16T07:48:28;100856.50;;;0.49;81.66
65329;BME280;51941;52.210;5.158;2024-01-16T07:50:56;100866.28;;;0.40;81.68
65329;BME280;51941;52.210;5.158;2024-01-16T07:53:25;100876.75;;;0.45;81.94
65329;BME280;51941;52.210;5.158;2024-01-16T07:55:53;100863.81;;;0.44;81.31
65329;BME280;51941;52.210;5.158;2024-01-16T07:58:20;100860.38;;;0.43;81.44
65329;BME280;51941;52.210;5.158;2024-01-16T08:00:47;100864.59;;;0.44;81.73
65329;BME280;51941;52.210;5.158;2024-01-16T08:03:14;100870.19;;;0.43;81.70
65329;BME280;51941;52.210;5.158;2024-01-16T08:05:40;100858.19;;;0.45;81.91
65329;BME280;51941;52.210;5.158;2024-01-16T08:08:09;100862.84;;;0.39;81.44
65329;BME280;51941;52.210;5.158;2024-01-16T08:10:36;100854.09;;;0.39;81.56
65329;BME280;51941;52.210;5.158;2024-01-16T08:13:03;100859.13;;;0.41;81.17
65329;BME280;51941;52.210;5.158;2024-01-16T08:15:29;100859.41;;;0.39;81.20
65329;BME280;51941;52.210;5.158;2024-01-16T08:17:56;100850.88;;;0.42;81.48
65329;BME280;51941;52.210;5.158;2024-01-16T08:20:23;100844.72;;;0.33;81.25
65329;BME280;51941;52.210;5.158;2024-01-16T08:22:48;100853.63;;;0.37;81.56
65329;BME280;51941;52.210;5.158;2024-01-16T08:25:17;100856.88;;;0.34;81.21
65329;BME280;51941;52.210;5.158;2024-01-16T08:27:44;100850.59;;;0.30;81.08
65329;BME280;51941;52.210;5.158;2024-01-16T08:30:11;100847.31;;;0.24;80.91
65329;BME280;51941;52.210;5.158;2024-01-16T08:32:38;100855.53;;;0.23;81.10
65329;BME280;51941;52.210;5.158;2024-01-16T08:35:06;100851.94;;;0.18;80.90
65329;BME280;51941;52.210;5.158;2024-01-16T08:37:34;100848.31;;;0.14;80.54
65329;BME280;51941;52.210;5.158;2024-01-16T08:40:00;100852.03;;;0.13;80.84
65329;BME280;51941;52.210;5.158;2024-01-16T08:42:30;100850.16;;;0.14;80.43
65329;BME280;51941;52.210;5.158;2024-01-16T08:44:56;100845.34;;;0.16;80.45
65329;BME280;51941;52.210;5.158;2024-01-16T08:47:23;100848.78;;;0.16;80.05
65329;BME280;51941;52.210;5.158;2024-01-16T08:49:50;100854.56;;;0.18;80.00
65329;BME280;51941;52.210;5.158;2024-01-16T08:52:17;100852.13;;;0.22;79.81
65329;BME280;51941;52.210;5.158;2024-01-16T08:54:44;100853.00;;;0.17;79.20
65329;BME280;51941;52.210;5.158;2024-01-16T08:57:10;100851.59;;;0.34;79.85
65329;BME280;51941;52.210;5.158;2024-01-16T08:59:40;100852.22;;;0.39;79.00
65329;BME280;51941;52.210;5.158;2024-01-16T09:02:07;100848.56;;;0.49;78.36
65329;BME280;51941;52.210;5.158;2024-01-16T09:04:33;100846.88;;;0.53;77.97
65329;BME280;51941;52.210;5.158;2024-01-16T09:07:01;100838.53;;;0.60;77.87
65329;BME280;51941;52.210;5.158;2024-01-16T09:09:30;100847.25;;;0.61;77.39
65329;BME280;51941;52.210;5.158;2024-01-16T09:11:56;100853.94;;;0.58;77.32
65329;BME280;51941;52.210;5.158;2024-01-16T09:14:24;100847.16;;;0.66;77.76
65329;BME280;51941;52.210;5.158;2024-01-16T09:16:52;100846.19;;;0.62;77.01
65329;BME280;51941;52.210;5.158;2024-01-16T09:19:19;100852.31;;;0.71;77.35
65329;BME280;51941;52.210;5.158;2024-01-16T09:21:46;100844.81;;;0.73;76.64
65329;BME280;51941;52.210;5.158;2024-01-16T09:24:13;100847.38;;;0.78;76.57
65329;BME280;51941;52.210;5.158;2024-01-16T09:26:39;100847.84;;;0.80;76.15
65329;BME280;51941;52.210;5.158;2024-01-16T09:29:09;100846.44;;;0.83;75.82
65329;BME280;51941;52.210;5.158;2024-01-16T09:31:36;100854.47;;;0.91;75.83
65329;BME280;51941;52.210;5.158;2024-01-16T09:34:04;100861.38;;;1.01;76.45
65329;BME280;51941;52.210;5.158;2024-01-16T09:36:30;100851.59;;;1.10;75.98
65329;BME280;51941;52.210;5.158;2024-01-16T09:38:57;100847.88;;;1.20;75.34
65329;BME280;51941;52.210;5.158;2024-01-16T09:41:24;100854.16;;;1.24;74.86
65329;BME280;51941;52.210;5.158;2024-01-16T09:43:51;100851.72;;;1.36;75.73
65329;BME280;51941;52.210;5.158;2024-01-16T09:46:20;100844.53;;;1.37;74.68
65329;BME280;51941;52.210;5.158;2024-01-16T09:48:50;100843.00;;;1.53;75.94
65329;BME280;51941;52.210;5.158;2024-01-16T09:51:18;100841.19;;;1.63;75.28
65329;BME280;51941;52.210;5.158;2024-01-16T09:53:45;100835.41;;;1.69;74.68
65329;BME280;51941;52.210;5.158;2024-01-16T09:56:14;100843.38;;;1.69;73.74
65329;BME280;51941;52.210;5.158;2024-01-16T09:58:43;100825.72;;;1.73;73.80
65329;BME280;51941;52.210;5.158;2024-01-16T10:01:11;100830.59;;;1.80;73.51
65329;BME280;51941;52.210;5.158;2024-01-16T10:03:38;100830.59;;;1.89;74.46
65329;BME280;51941;52.210;5.158;2024-01-16T10:06:07;100826.84;;;1.98;73.91
65329;BME280;51941;52.210;5.158;2024-01-16T10:08:35;100820.47;;;2.08;71.98
65329;BME280;51941;52.210;5.158;2024-01-16T10:11:03;100816.72;;;2.18;74.11
65329;BME280;51941;52.210;5.158;2024-01-16T10:13:31;100813.59;;;2.33;73.48
65329;BME280;51941;52.210;5.158;2024-01-16T10:15:58;100822.97;;;2.48;72.13
65329;BME280;51941;52.210;5.158;2024-01-16T10:18:26;100815.59;;;2.63;71.41
65329;BME280;51941;52.210;5.158;2024-01-16T10:20:55;100814.44;;;2.81;73.42
65329;BME280;51941;52.210;5.158;2024-01-16T10:23:22;100804.44;;;2.78;70.64
65329;BME280;51941;52.210;5.158;2024-01-16T10:28:45;100806.88;;;3.01;69.68
65329;BME280;51941;52.210;5.158;2024-01-16T10:31:12;100803.59;;;3.04;69.81
65329;BME280;51941;52.210;5.158;2024-01-16T10:33:40;100800.31;;;2.98;69.49
65329;BME280;51941;52.210;5.158;2024-01-16T10:36:08;100810.66;;;3.00;69.59
65329;BME280;51941;52.210;5.158;2024-01-16T10:38:36;100805.91;;;3.05;70.11
65329;BME280;51941;52.210;5.158;2024-01-16T10:41:05;100799.97;;;3.08;69.49
65329;BME280;51941;52.210;5.158;2024-01-16T10:43:32;100804.16;;;3.18;69.50
65329;BME280;51941;52.210;5.158;2024-01-16T10:46:08;100806.28;;;3.25;70.06
65329;BME280;51941;52.210;5.158;2024-01-16T10:48:37;100808.31;;;3.28;70.38
65329;BME280;51941;52.210;5.158;2024-01-16T10:51:05;100804.91;;;3.19;67.85
65329;BME280;51941;52.210;5.158;2024-01-16T10:53:33;100805.28;;;3.08;68.19
65329;BME280;51941;52.210;5.158;2024-01-16T10:56:01;100804.00;;;3.14;69.60
65329;BME280;51941;52.210;5.158;2024-01-16T10:58:30;100796.22;;;3.09;70.52
65329;BME280;51941;52.210;5.158;2024-01-16T11:01:00;100796.53;;;3.08;69.32
65329;BME280;51941;52.210;5.158;2024-01-16T11:03:35;100798.41;;;3.07;70.17
65329;BME280;51941;52.210;5.158;2024-01-16T11:06:04;100795.75;;;2.99;69.24
65329;BME280;51941;52.210;5.158;2024-01-16T11:08:35;100794.41;;;2.84;68.34
65329;BME280;51941;52.210;5.158;2024-01-16T11:11:02;100782.53;;;2.81;68.80
65329;BME280;51941;52.210;5.158;2024-01-16T11:13:31;100783.94;;;2.79;70.69
65329;BME280;51941;52.210;5.158;2024-01-16T11:15:59;100776.94;;;2.74;69.66
65329;BME280;51941;52.210;5.158;2024-01-16T11:18:30;100775.34;;;2.73;69.18
65329;BME280;51941;52.210;5.158;2024-01-16T11:20:57;100778.31;;;2.71;68.30
65329;BME280;51941;52.210;5.158;2024-01-16T11:23:25;100769.28;;;2.64;68.85
65329;BME280;51941;52.210;5.158;2024-01-16T11:25:52;100767.06;;;2.66;70.45
65329;BME280;51941;52.210;5.158;2024-01-16T11:28:19;100760.81;;;2.70;69.37
65329;BME280;51941;52.210;5.158;2024-01-16T11:30:46;100760.22;;;2.65;67.28
65329;BME280;51941;52.210;5.158;2024-01-16T11:33:42;100754.38;;;2.80;67.57
65329;BME280;51941;52.210;5.158;2024-01-16T11:36:42;100749.00;;;2.89;67.88
65329;BME280;51941;52.210;5.158;2024-01-16T11:39:17;100749.09;;;3.01;68.74
65329;BME280;51941;52.210;5.158;2024-01-16T11:41:57;100745.50;;;3.06;67.52
65329;BME280;51941;52.210;5.158;2024-01-16T11:44:37;100748.34;;;3.01;66.55
65329;BME280;51941;52.210;5.158;2024-01-16T11:47:04;100744.38;;;3.07;66.72
65329;BME280;51941;52.210;5.158;2024-01-16T11:49:32;100741.88;;;3.10;67.05
65329;BME280;51941;52.210;5.158;2024-01-16T11:51:59;100739.63;;;3.21;67.58
65329;BME280;51941;52.210;5.158;2024-01-16T11:54:27;100738.84;;;3.21;66.93
65329;BME280;51941;52.210;5.158;2024-01-16T11:57:06;100736.97;;;3.21;66.90
65329;BME280;51941;52.210;5.158;2024-01-16T11:59:48;100749.25;;;3.34;65.47
65329;BME280;51941;52.210;5.158;2024-01-16T12:02:29;100738.84;;;3.21;65.18
65329;BME280;51941;52.210;5.158;2024-01-16T12:05:02;100739.19;;;3.40;66.62
65329;BME280;51941;52.210;5.158;2024-01-16T12:07:43;100731.03;;;3.45;66.37
65329;BME280;51941;52.210;5.158;2024-01-16T12:10:10;100733.25;;;3.43;65.37
65329;BME280;51941;52.210;5.158;2024-01-16T12:12:37;100739.19;;;3.40;64.86
65329;BME280;51941;52.210;5.158;2024-01-16T12:15:05;100731.91;;;3.28;66.71
65329;BME280;51941;52.210;5.158;2024-01-16T12:17:32;100735.41;;;3.20;65.74
65329;BME280;51941;52.210;5.158;2024-01-16T12:20:09;100737.00;;;3.12;66.12
65329;BME280;51941;52.210;5.158;2024-01-16T12:22:41;100729.94;;;3.16;67.22
65329;BME280;51941;52.210;5.158;2024-01-16T12:25:08;100729.31;;;3.20;67.11
65329;BME280;51941;52.210;5.158;2024-01-16T12:27:36;100728.84;;;3.18;67.08
65329;BME280;51941;52.210;5.158;2024-01-16T12:30:07;100733.13;;;3.10;65.76
65329;BME280;51941;52.210;5.158;2024-01-16T12:32:34;100724.53;;;3.04;66.87
65329;BME280;51941;52.210;5.158;2024-01-16T12:35:02;100715.94;;;3.07;66.73
65329;BME280;51941;52.210;5.158;2024-01-16T12:37:29;100721.97;;;3.16;67.08
65329;BME280;51941;52.210;5.158;2024-01-16T12:39:56;100719.38;;;3.29;67.14
65329;BME280;51941;52.210;5.158;2024-01-16T12:42:23;100714.47;;;3.40;67.40
65329;BME280;51941;52.210;5.158;2024-01-16T12:44:51;100717.97;;;3.52;66.97
65329;BME280;51941;52.210;5.158;2024-01-16T12:47:18;100711.16;;;3.64;67.19
65329;BME280;51941;52.210;5.158;2024-01-16T12:49:46;100715.31;;;3.73;66.87
65329;BME280;51941;52.210;5.158;2024-01-16T12:52:21;100714.34;;;3.78;65.39
65329;BME280;51941;52.210;5.158;2024-01-16T12:54:58;100709.94;;;3.82;66.24
65329;BME280;51941;52.210;5.158;2024-01-16T12:57:27;100707.81;;;3.88;66.13
65329;BME280;51941;52.210;5.158;2024-01-16T12:59:54;100707.59;;;3.81;64.92
65329;BME280;51941;52.210;5.158;2024-01-16T13:02:23;100707.72;;;3.84;66.30
65329;BME280;51941;52.210;5.158;2024-01-16T13:04:57;100702.44;;;3.75;65.36